sensor_id;sensor_type;location;lat;lon;timestamp;P1;durP1;ratioP1;P2;durP2;ratioP2
53293;SDS011;39181;53.440;5.644;2023-06-26T00:01:57;9.85;;;8.35;;
53293;SDS011;39181;53.440;5.644;2023-06-26T00:04:22;11.60;;;8.68;;
53293;SDS011;39181;53.440;5.644;2023-06-26T00:06:48;11.10;;;8.20;;
53293;SDS011;39181;53.440;5.644;2023-06-26T00:09:13;10.30;;;9.20;;
53293;SDS011;39181;53.440;5.644;2023-06-26T00:11:39;10.32;;;8.68;;
53293;SDS011;39181;53.440;5.644;2023-06-26T00:14:05;11.20;;;8.70;;
53293;SDS011;39181;53.440;5.644;2023-06-26T00:16:31;9.93;;;8.88;;
53293;SDS011;39181;53.440;5.644;2023-06-26T00:18:57;11.57;;;8.73;;
53293;SDS011;39181;53.440;5.644;2023-06-26T00:21:24;12.60;;;9.43;;
53293;SDS011;39181;53.440;5.644;2023-06-26T00:23:50;10.18;;;8.68;;
53293;SDS011;39181;53.440;5.644;2023-06-26T00:26:16;10.23;;;8.38;;
53293;SDS011;39181;53.440;5.644;2023-06-26T00:28:41;10.02;;;8.80;;
53293;SDS011;39181;53.440;5.644;2023-06-26T00:31:07;13.40;;;8.93;;
53293;SDS011;39181;53.440;5.644;2023-06-26T00:33:32;11.77;;;9.25;;
53293;SDS011;39181;53.440;5.644;2023-06-26T00:35:58;13.88;;;9.10;;
53293;SDS011;39181;53.440;5.644;2023-06-26T00:38:24;14.63;;;9.02;;
53293;SDS011;39181;53.440;5.644;2023-06-26T00:40:50;12.25;;;8.80;;
53293;SDS011;39181;53.440;5.644;2023-06-26T00:43:15;10.10;;;8.32;;
53293;SDS011;39181;53.440;5.644;2023-06-26T00:45:41;11.30;;;9.20;;
53293;SDS011;39181;53.440;5.644;2023-06-26T00:48:06;11.57;;;9.18;;
53293;SDS011;39181;53.440;5.644;2023-06-26T00:50:33;10.13;;;9.05;;
53293;SDS011;39181;53.440;5.644;2023-06-26T00:52:59;10.10;;;8.43;;
53293;SDS011;39181;53.440;5.644;2023-06-26T00:55:26;14.68;;;9.50;;
53293;SDS011;39181;53.440;5.644;2023-06-26T00:57:52;11.20;;;9.48;;
53293;SDS011;39181;53.440;5.644;2023-06-26T01:00:19;10.93;;;8.98;;
53293;SDS011;39181;53.440;5.644;2023-06-26T01:02:45;11.23;;;9.60;;
53293;SDS011;39181;53.440;5.644;2023-06-26T01:05:11;10.82;;;8.85;;
53293;SDS011;39181;53.440;5.644;2023-06-26T01:07:38;10.18;;;9.15;;
53293;SDS011;39181;53.440;5.644;2023-06-26T01:10:06;10.82;;;9.18;;
53293;SDS011;39181;53.440;5.644;2023-06-26T01:12:32;11.07;;;9.55;;
53293;SDS011;39181;53.440;5.644;2023-06-26T01:15:01;12.57;;;10.27;;
53293;SDS011;39181;53.440;5.644;2023-06-26T01:17:27;11.77;;;9.80;;
53293;SDS011;39181;53.440;5.644;2023-06-26T01:19:58;11.98;;;9.35;;
53293;SDS011;39181;53.440;5.644;2023-06-26T01:25:32;13.52;;;9.85;;
53293;SDS011;39181;53.440;5.644;2023-06-26T01:28:06;12.52;;;9.38;;
53293;SDS011;39181;53.440;5.644;2023-06-26T01:30:33;13.15;;;10.02;;
53293;SDS011;39181;53.440;5.644;2023-06-26T01:33:01;10.98;;;9.43;;
53293;SDS011;39181;53.440;5.644;2023-06-26T01:35:28;11.60;;;9.48;;
53293;SDS011;39181;53.440;5.644;2023-06-26T01:38:10;12.13;;;9.20;;
53293;SDS011;39181;53.440;5.644;2023-06-26T01:40:46;13.40;;;9.27;;
53293;SDS011;39181;53.440;5.644;2023-06-26T01:43:16;14.27;;;9.60;;
53293;SDS011;39181;53.440;5.644;2023-06-26T01:45:59;10.30;;;7.75;;
53293;SDS011;39181;53.440;5.644;2023-06-26T01:48:34;10.35;;;8.13;;
53293;SDS011;39181;53.440;5.644;2023-06-26T01:51:07;8.93;;;5.68;;
53293;SDS011;39181;53.440;5.644;2023-06-26T01:53:36;8.63;;;5.32;;
53293;SDS011;39181;53.440;5.644;2023-06-26T01:56:08;6.13;;;4.38;;
53293;SDS011;39181;53.440;5.644;2023-06-26T01:58:39;7.88;;;4.88;;
53293;SDS011;39181;53.440;5.644;2023-06-26T02:01:08;7.80;;;5.43;;
53293;SDS011;39181;53.440;5.644;2023-06-26T02:03:34;8.00;;;5.47;;
53293;SDS011;39181;53.440;5.644;2023-06-26T02:05:59;7.05;;;4.95;;
53293;SDS011;39181;53.440;5.644;2023-06-26T02:08:25;8.45;;;5.18;;
53293;SDS011;39181;53.440;5.644;2023-06-26T02:10:51;6.78;;;5.05;;
53293;SDS011;39181;53.440;5.644;2023-06-26T02:13:16;8.07;;;5.15;;
53293;SDS011;39181;53.440;5.644;2023-06-26T02:15:42;8.50;;;5.10;;
53293;SDS011;39181;53.440;5.644;2023-06-26T02:18:07;6.90;;;5.43;;
53293;SDS011;39181;53.440;5.644;2023-06-26T02:20:33;6.43;;;4.95;;
53293;SDS011;39181;53.440;5.644;2023-06-26T02:22:58;6.60;;;4.97;;
53293;SDS011;39181;53.440;5.644;2023-06-26T02:25:24;8.98;;;5.45;;
53293;SDS011;39181;53.440;5.644;2023-06-26T02:27:50;10.27;;;4.70;;
53293;SDS011;39181;53.440;5.644;2023-06-26T02:30:15;11.88;;;5.38;;
53293;SDS011;39181;53.440;5.644;2023-06-26T02:32:41;9.27;;;6.38;;
53293;SDS011;39181;53.440;5.644;2023-06-26T02:35:06;9.25;;;5.95;;
53293;SDS011;39181;53.440;5.644;2023-06-26T02:37:32;11.13;;;5.50;;
53293;SDS011;39181;53.440;5.644;2023-06-26T02:39:58;11.73;;;5.50;;
53293;SDS011;39181;53.440;5.644;2023-06-26T02:42:23;11.25;;;5.38;;
53293;SDS011;39181;53.440;5.644;2023-06-26T02:44:49;10.60;;;5.70;;
53293;SDS011;39181;53.440;5.644;2023-06-26T02:47:15;12.68;;;6.05;;
53293;SDS011;39181;53.440;5.644;2023-06-26T02:49:40;11.10;;;6.20;;
53293;SDS011;39181;53.440;5.644;2023-06-26T02:52:06;12.68;;;7.00;;
53293;SDS011;39181;53.440;5.644;2023-06-26T02:54:31;9.85;;;5.93;;
53293;SDS011;39181;53.440;5.644;2023-06-26T02:56:57;12.23;;;6.40;;
53293;SDS011;39181;53.440;5.644;2023-06-26T02:59:24;10.95;;;6.68;;
53293;SDS011;39181;53.440;5.644;2023-06-26T03:01:50;11.25;;;6.15;;
53293;SDS011;39181;53.440;5.644;2023-06-26T03:04:15;11.93;;;6.63;;
53293;SDS011;39181;53.440;5.644;2023-06-26T03:06:42;11.73;;;6.55;;
53293;SDS011;39181;53.440;5.644;2023-06-26T03:09:08;15.30;;;6.72;;
53293;SDS011;39181;53.440;5.644;2023-06-26T03:11:34;12.32;;;6.57;;
53293;SDS011;39181;53.440;5.644;2023-06-26T03:13:59;15.27;;;7.60;;
53293;SDS011;39181;53.440;5.644;2023-06-26T03:16:25;11.50;;;6.65;;
53293;SDS011;39181;53.440;5.644;2023-06-26T03:18:50;13.93;;;6.93;;
53293;SDS011;39181;53.440;5.644;2023-06-26T03:21:16;11.90;;;6.30;;
53293;SDS011;39181;53.440;5.644;2023-06-26T03:23:42;10.82;;;6.85;;
53293;SDS011;39181;53.440;5.644;2023-06-26T03:26:08;10.88;;;6.13;;
53293;SDS011;39181;53.440;5.644;2023-06-26T03:28:33;7.93;;;5.65;;
53293;SDS011;39181;53.440;5.644;2023-06-26T03:30:59;13.07;;;6.90;;
53293;SDS011;39181;53.440;5.644;2023-06-26T03:33:24;14.10;;;6.63;;
53293;SDS011;39181;53.440;5.644;2023-06-26T03:35:50;17.42;;;6.75;;
53293;SDS011;39181;53.440;5.644;2023-06-26T03:38:15;14.98;;;6.80;;
53293;SDS011;39181;53.440;5.644;2023-06-26T03:40:41;16.75;;;7.05;;
53293;SDS011;39181;53.440;5.644;2023-06-26T03:43:06;22.65;;;6.80;;
53293;SDS011;39181;53.440;5.644;2023-06-26T03:45:32;17.63;;;7.78;;
53293;SDS011;39181;53.440;5.644;2023-06-26T03:47:57;16.20;;;6.50;;
53293;SDS011;39181;53.440;5.644;2023-06-26T03:50:23;15.77;;;7.55;;
53293;SDS011;39181;53.440;5.644;2023-06-26T03:52:48;20.67;;;7.07;;
53293;SDS011;39181;53.440;5.644;2023-06-26T03:55:15;20.27;;;7.30;;
53293;SDS011;39181;53.440;5.644;2023-06-26T03:57:42;14.88;;;6.72;;
53293;SDS011;39181;53.440;5.644;2023-06-26T04:00:08;17.42;;;6.45;;
53293;SDS011;39181;53.440;5.644;2023-06-26T04:02:34;13.68;;;6.07;;
53293;SDS011;39181;53.440;5.644;2023-06-26T04:05:01;22.92;;;6.70;;
53293;SDS011;39181;53.440;5.644;2023-06-26T04:07:28;21.90;;;6.15;;
53293;SDS011;39181;53.440;5.644;2023-06-26T04:09:53;18.65;;;6.28;;
53293;SDS011;39181;53.440;5.644;2023-06-26T04:12:19;16.67;;;5.38;;
53293;SDS011;39181;53.440;5.644;2023-06-26T04:14:44;20.45;;;5.72;;
53293;SDS011;39181;53.440;5.644;2023-06-26T04:17:12;17.45;;;6.40;;
53293;SDS011;39181;53.440;5.644;2023-06-26T04:19:37;18.13;;;5.05;;
53293;SDS011;39181;53.440;5.644;2023-06-26T04:22:03;14.68;;;4.95;;
53293;SDS011;39181;53.440;5.644;2023-06-26T04:24:29;23.40;;;5.57;;
53293;SDS011;39181;53.440;5.644;2023-06-26T04:26:54;19.75;;;5.65;;
53293;SDS011;39181;53.440;5.644;2023-06-26T04:29:22;16.63;;;4.75;;
53293;SDS011;39181;53.440;5.644;2023-06-26T04:31:50;19.33;;;5.40;;
53293;SDS011;39181;53.440;5.644;2023-06-26T04:34:16;20.77;;;6.32;;
53293;SDS011;39181;53.440;5.644;2023-06-26T04:36:42;21.65;;;4.70;;
53293;SDS011;39181;53.440;5.644;2023-06-26T04:39:13;19.85;;;5.10;;
53293;SDS011;39181;53.440;5.644;2023-06-26T04:41:40;18.15;;;4.30;;
53293;SDS011;39181;53.440;5.644;2023-06-26T04:44:06;18.38;;;4.38;;
53293;SDS011;39181;53.440;5.644;2023-06-26T04:46:31;18.50;;;4.00;;
53293;SDS011;39181;53.440;5.644;2023-06-26T04:48:57;20.67;;;4.38;;
53293;SDS011;39181;53.440;5.644;2023-06-26T04:51:23;15.77;;;4.03;;
53293;SDS011;39181;53.440;5.644;2023-06-26T04:53:49;18.52;;;4.60;;
53293;SDS011;39181;53.440;5.644;2023-06-26T04:56:15;20.80;;;4.45;;
53293;SDS011;39181;53.440;5.644;2023-06-26T04:58:40;17.75;;;4.40;;
53293;SDS011;39181;53.440;5.644;2023-06-26T05:01:06;19.67;;;4.18;;
53293;SDS011;39181;53.440;5.644;2023-06-26T05:03:31;20.67;;;4.75;;
53293;SDS011;39181;53.440;5.644;2023-06-26T05:05:57;15.50;;;3.90;;
53293;SDS011;39181;53.440;5.644;2023-06-26T05:08:23;18.77;;;4.53;;
53293;SDS011;39181;53.440;5.644;2023-06-26T05:10:51;16.58;;;4.28;;
53293;SDS011;39181;53.440;5.644;2023-06-26T05:13:18;19.83;;;4.30;;
53293;SDS011;39181;53.440;5.644;2023-06-26T05:15:45;18.08;;;4.15;;
53293;SDS011;39181;53.440;5.644;2023-06-26T05:18:11;23.48;;;4.28;;
53293;SDS011;39181;53.440;5.644;2023-06-26T05:20:37;17.85;;;4.07;;
53293;SDS011;39181;53.440;5.644;2023-06-26T05:23:03;22.40;;;4.25;;
53293;SDS011;39181;53.440;5.644;2023-06-26T05:25:30;23.13;;;5.22;;
53293;SDS011;39181;53.440;5.644;2023-06-26T05:27:58;22.38;;;4.07;;
53293;SDS011;39181;53.440;5.644;2023-06-26T05:30:25;18.05;;;3.90;;
53293;SDS011;39181;53.440;5.644;2023-06-26T05:32:51;16.13;;;3.80;;
53293;SDS011;39181;53.440;5.644;2023-06-26T05:35:18;15.65;;;3.10;;
53293;SDS011;39181;53.440;5.644;2023-06-26T05:37:48;15.95;;;3.50;;
53293;SDS011;39181;53.440;5.644;2023-06-26T05:40:15;13.23;;;2.90;;
53293;SDS011;39181;53.440;5.644;2023-06-26T05:42:44;14.07;;;2.88;;
53293;SDS011;39181;53.440;5.644;2023-06-26T05:45:10;12.07;;;3.10;;
53293;SDS011;39181;53.440;5.644;2023-06-26T05:47:36;13.27;;;3.22;;
53293;SDS011;39181;53.440;5.644;2023-06-26T05:50:02;15.02;;;2.78;;
53293;SDS011;39181;53.440;5.644;2023-06-26T05:52:28;13.02;;;2.88;;
53293;SDS011;39181;53.440;5.644;2023-06-26T05:54:55;12.70;;;3.15;;
53293;SDS011;39181;53.440;5.644;2023-06-26T05:57:23;8.43;;;2.50;;
53293;SDS011;39181;53.440;5.644;2023-06-26T05:59:49;9.07;;;2.35;;
53293;SDS011;39181;53.440;5.644;2023-06-26T06:02:16;13.07;;;2.75;;
53293;SDS011;39181;53.440;5.644;2023-06-26T06:04:41;12.68;;;2.33;;
53293;SDS011;39181;53.440;5.644;2023-06-26T06:07:07;13.25;;;2.72;;
53293;SDS011;39181;53.440;5.644;2023-06-26T06:09:33;6.80;;;2.88;;
53293;SDS011;39181;53.440;5.644;2023-06-26T06:11:58;10.95;;;2.40;;
53293;SDS011;39181;53.440;5.644;2023-06-26T06:14:24;10.52;;;2.75;;
53293;SDS011;39181;53.440;5.644;2023-06-26T06:16:50;8.15;;;2.38;;
53293;SDS011;39181;53.440;5.644;2023-06-26T06:19:15;11.35;;;3.22;;
53293;SDS011;39181;53.440;5.644;2023-06-26T06:21:41;12.48;;;2.55;;
53293;SDS011;39181;53.440;5.644;2023-06-26T06:24:08;11.18;;;2.15;;
53293;SDS011;39181;53.440;5.644;2023-06-26T06:26:34;11.30;;;2.47;;
53293;SDS011;39181;53.440;5.644;2023-06-26T06:29:00;9.50;;;2.22;;
53293;SDS011;39181;53.440;5.644;2023-06-26T06:31:26;11.65;;;2.92;;
53293;SDS011;39181;53.440;5.644;2023-06-26T06:33:53;14.75;;;2.47;;
53293;SDS011;39181;53.440;5.644;2023-06-26T06:36:19;13.85;;;2.10;;
53293;SDS011;39181;53.440;5.644;2023-06-26T06:38:45;14.10;;;2.67;;
53293;SDS011;39181;53.440;5.644;2023-06-26T06:41:10;9.95;;;2.45;;
53293;SDS011;39181;53.440;5.644;2023-06-26T06:43:37;10.43;;;2.47;;
53293;SDS011;39181;53.440;5.644;2023-06-26T06:46:03;9.18;;;2.70;;
53293;SDS011;39181;53.440;5.644;2023-06-26T06:48:29;10.23;;;2.85;;
53293;SDS011;39181;53.440;5.644;2023-06-26T06:50:54;10.27;;;2.97;;
53293;SDS011;39181;53.440;5.644;2023-06-26T06:53:20;10.88;;;2.85;;
53293;SDS011;39181;53.440;5.644;2023-06-26T06:55:46;12.40;;;3.13;;
53293;SDS011;39181;53.440;5.644;2023-06-26T06:58:11;9.57;;;2.50;;
53293;SDS011;39181;53.440;5.644;2023-06-26T07:00:37;14.00;;;2.75;;
53293;SDS011;39181;53.440;5.644;2023-06-26T07:03:03;13.05;;;2.83;;
53293;SDS011;39181;53.440;5.644;2023-06-26T07:05:29;13.13;;;2.60;;
53293;SDS011;39181;53.440;5.644;2023-06-26T07:07:54;10.25;;;2.92;;
53293;SDS011;39181;53.440;5.644;2023-06-26T07:10:20;11.90;;;3.03;;
53293;SDS011;39181;53.440;5.644;2023-06-26T07:12:46;8.30;;;2.63;;
53293;SDS011;39181;53.440;5.644;2023-06-26T07:15:12;8.02;;;2.63;;
53293;SDS011;39181;53.440;5.644;2023-06-26T07:17:37;12.30;;;2.72;;
53293;SDS011;39181;53.440;5.644;2023-06-26T07:20:04;11.10;;;3.20;;
53293;SDS011;39181;53.440;5.644;2023-06-26T07:22:32;10.38;;;2.95;;
53293;SDS011;39181;53.440;5.644;2023-06-26T07:24:58;13.20;;;3.22;;
53293;SDS011;39181;53.440;5.644;2023-06-26T07:27:23;11.23;;;2.80;;
53293;SDS011;39181;53.440;5.644;2023-06-26T07:29:49;8.95;;;2.25;;
53293;SDS011;39181;53.440;5.644;2023-06-26T07:32:14;10.27;;;2.47;;
53293;SDS011;39181;53.440;5.644;2023-06-26T07:34:40;14.00;;;3.38;;
53293;SDS011;39181;53.440;5.644;2023-06-26T07:37:05;10.32;;;2.17;;
53293;SDS011;39181;53.440;5.644;2023-06-26T07:39:32;11.80;;;3.40;;
53293;SDS011;39181;53.440;5.644;2023-06-26T07:41:57;10.30;;;2.80;;
53293;SDS011;39181;53.440;5.644;2023-06-26T07:44:24;9.57;;;2.35;;
53293;SDS011;39181;53.440;5.644;2023-06-26T07:46:50;12.35;;;3.38;;
53293;SDS011;39181;53.440;5.644;2023-06-26T07:49:16;16.42;;;3.17;;
53293;SDS011;39181;53.440;5.644;2023-06-26T07:51:41;10.68;;;2.50;;
53293;SDS011;39181;53.440;5.644;2023-06-26T07:54:07;15.10;;;3.90;;
53293;SDS011;39181;53.440;5.644;2023-06-26T07:56:35;15.25;;;3.03;;
53293;SDS011;39181;53.440;5.644;2023-06-26T07:59:17;12.55;;;2.45;;
53293;SDS011;39181;53.440;5.644;2023-06-26T08:01:42;7.57;;;2.83;;
53293;SDS011;39181;53.440;5.644;2023-06-26T08:04:08;8.40;;;2.92;;
53293;SDS011;39181;53.440;5.644;2023-06-26T08:06:35;15.60;;;3.33;;
53293;SDS011;39181;53.440;5.644;2023-06-26T08:09:05;12.48;;;2.78;;
53293;SDS011;39181;53.440;5.644;2023-06-26T08:11:32;7.05;;;2.72;;
53293;SDS011;39181;53.440;5.644;2023-06-26T08:13:58;10.98;;;2.85;;
53293;SDS011;39181;53.440;5.644;2023-06-26T08:16:24;14.90;;;2.88;;
53293;SDS011;39181;53.440;5.644;2023-06-26T08:18:50;10.85;;;3.10;;
53293;SDS011;39181;53.440;5.644;2023-06-26T08:21:15;13.48;;;3.65;;
53293;SDS011;39181;53.440;5.644;2023-06-26T08:23:41;9.30;;;3.63;;
53293;SDS011;39181;53.440;5.644;2023-06-26T08:26:07;13.02;;;3.08;;
53293;SDS011;39181;53.440;5.644;2023-06-26T08:28:32;6.63;;;2.47;;
53293;SDS011;39181;53.440;5.644;2023-06-26T08:30:58;12.77;;;3.33;;
53293;SDS011;39181;53.440;5.644;2023-06-26T08:33:24;11.52;;;2.90;;
53293;SDS011;39181;53.440;5.644;2023-06-26T08:35:50;9.45;;;3.28;;
53293;SDS011;39181;53.440;5.644;2023-06-26T08:38:15;9.77;;;3.30;;
53293;SDS011;39181;53.440;5.644;2023-06-26T08:40:41;14.20;;;3.63;;
53293;SDS011;39181;53.440;5.644;2023-06-26T08:43:07;13.45;;;4.40;;
53293;SDS011;39181;53.440;5.644;2023-06-26T08:45:32;10.95;;;3.88;;
53293;SDS011;39181;53.440;5.644;2023-06-26T08:47:59;13.68;;;4.20;;
53293;SDS011;39181;53.440;5.644;2023-06-26T08:50:27;15.55;;;4.20;;
53293;SDS011;39181;53.440;5.644;2023-06-26T08:55:48;12.10;;;3.60;;
53293;SDS011;39181;53.440;5.644;2023-06-26T08:58:17;12.13;;;3.65;;
53293;SDS011;39181;53.440;5.644;2023-06-26T09:00:42;14.88;;;4.15;;
53293;SDS011;39181;53.440;5.644;2023-06-26T09:03:08;8.05;;;3.15;;
53293;SDS011;39181;53.440;5.644;2023-06-26T09:05:35;9.75;;;4.13;;
53293;SDS011;39181;53.440;5.644;2023-06-26T09:08:01;11.93;;;4.30;;
53293;SDS011;39181;53.440;5.644;2023-06-26T09:10:27;10.82;;;3.97;;
53293;SDS011;39181;53.440;5.644;2023-06-26T09:12:56;10.30;;;3.53;;
53293;SDS011;39181;53.440;5.644;2023-06-26T09:15:26;9.77;;;3.75;;
53293;SDS011;39181;53.440;5.644;2023-06-26T09:17:55;10.63;;;3.72;;
53293;SDS011;39181;53.440;5.644;2023-06-26T09:20:27;10.60;;;2.88;;
53293;SDS011;39181;53.440;5.644;2023-06-26T09:22:53;11.80;;;3.20;;
53293;SDS011;39181;53.440;5.644;2023-06-26T09:25:19;15.07;;;3.25;;
53293;SDS011;39181;53.440;5.644;2023-06-26T09:27:47;14.52;;;3.47;;
53293;SDS011;39181;53.440;5.644;2023-06-26T09:30:15;11.93;;;3.13;;
53293;SDS011;39181;53.440;5.644;2023-06-26T09:32:42;14.85;;;2.60;;
53293;SDS011;39181;53.440;5.644;2023-06-26T09:35:08;10.52;;;2.92;;
53293;SDS011;39181;53.440;5.644;2023-06-26T09:37:34;16.95;;;2.92;;
53293;SDS011;39181;53.440;5.644;2023-06-26T09:39:59;13.82;;;3.03;;
53293;SDS011;39181;53.440;5.644;2023-06-26T09:42:25;14.68;;;3.45;;
53293;SDS011;39181;53.440;5.644;2023-06-26T09:44:51;11.82;;;2.97;;
53293;SDS011;39181;53.440;5.644;2023-06-26T09:47:17;11.32;;;2.70;;
53293;SDS011;39181;53.440;5.644;2023-06-26T09:49:44;12.30;;;2.97;;
53293;SDS011;39181;53.440;5.644;2023-06-26T09:52:10;12.85;;;3.15;;
53293;SDS011;39181;53.440;5.644;2023-06-26T09:54:40;10.60;;;2.63;;
53293;SDS011;39181;53.440;5.644;2023-06-26T09:57:09;13.90;;;2.60;;
53293;SDS011;39181;53.440;5.644;2023-06-26T09:59:36;14.15;;;2.88;;
53293;SDS011;39181;53.440;5.644;2023-06-26T10:02:01;16.20;;;3.78;;
53293;SDS011;39181;53.440;5.644;2023-06-26T10:04:27;17.40;;;3.65;;
53293;SDS011;39181;53.440;5.644;2023-06-26T10:06:56;14.07;;;2.78;;
53293;SDS011;39181;53.440;5.644;2023-06-26T10:09:23;14.10;;;2.95;;
53293;SDS011;39181;53.440;5.644;2023-06-26T10:12:11;18.95;;;3.08;;
53293;SDS011;39181;53.440;5.644;2023-06-26T10:14:51;12.60;;;3.20;;
53293;SDS011;39181;53.440;5.644;2023-06-26T10:17:19;14.48;;;3.15;;
53293;SDS011;39181;53.440;5.644;2023-06-26T10:19:48;13.32;;;2.72;;
53293;SDS011;39181;53.440;5.644;2023-06-26T10:22:16;12.85;;;2.60;;
53293;SDS011;39181;53.440;5.644;2023-06-26T10:24:44;12.13;;;2.60;;
53293;SDS011;39181;53.440;5.644;2023-06-26T10:27:19;12.73;;;2.67;;
53293;SDS011;39181;53.440;5.644;2023-06-26T10:29:49;12.20;;;2.70;;
53293;SDS011;39181;53.440;5.644;2023-06-26T10:32:24;14.82;;;3.05;;
53293;SDS011;39181;53.440;5.644;2023-06-26T10:34:51;13.43;;;3.00;;
53293;SDS011;39181;53.440;5.644;2023-06-26T10:37:17;11.77;;;2.85;;
53293;SDS011;39181;53.440;5.644;2023-06-26T10:39:50;9.43;;;2.60;;
53293;SDS011;39181;53.440;5.644;2023-06-26T10:42:19;8.90;;;2.67;;
53293;SDS011;39181;53.440;5.644;2023-06-26T10:44:53;13.70;;;3.45;;
53293;SDS011;39181;53.440;5.644;2023-06-26T10:47:28;10.43;;;2.67;;
53293;SDS011;39181;53.440;5.644;2023-06-26T10:55:43;10.50;;;2.78;;
53293;SDS011;39181;53.440;5.644;2023-06-26T11:03:41;9.65;;;2.10;;
53293;SDS011;39181;53.440;5.644;2023-06-26T11:06:13;14.02;;;2.70;;
53293;SDS011;39181;53.440;5.644;2023-06-26T11:08:52;12.63;;;2.97;;
53293;SDS011;39181;53.440;5.644;2023-06-26T11:11:19;15.63;;;2.55;;
53293;SDS011;39181;53.440;5.644;2023-06-26T11:13:46;11.23;;;2.67;;
53293;SDS011;39181;53.440;5.644;2023-06-26T11:16:13;11.10;;;2.45;;
53293;SDS011;39181;53.440;5.644;2023-06-26T11:18:42;11.63;;;2.40;;
53293;SDS011;39181;53.440;5.644;2023-06-26T11:21:10;10.95;;;2.38;;
53293;SDS011;39181;53.440;5.644;2023-06-26T11:23:38;12.27;;;2.90;;
53293;SDS011;39181;53.440;5.644;2023-06-26T11:26:12;12.20;;;2.20;;
53293;SDS011;39181;53.440;5.644;2023-06-26T11:28:48;13.05;;;2.63;;
53293;SDS011;39181;53.440;5.644;2023-06-26T11:31:29;10.68;;;2.92;;
53293;SDS011;39181;53.440;5.644;2023-06-26T11:33:56;17.20;;;2.67;;
53293;SDS011;39181;53.440;5.644;2023-06-26T11:36:24;14.27;;;2.70;;
53293;SDS011;39181;53.440;5.644;2023-06-26T11:38:57;10.88;;;2.47;;
53293;SDS011;39181;53.440;5.644;2023-06-26T11:41:25;17.25;;;2.72;;
53293;SDS011;39181;53.440;5.644;2023-06-26T11:43:52;11.43;;;2.65;;
53293;SDS011;39181;53.440;5.644;2023-06-26T11:46:19;13.85;;;2.55;;
53293;SDS011;39181;53.440;5.644;2023-06-26T11:48:45;10.43;;;2.47;;
53293;SDS011;39181;53.440;5.644;2023-06-26T11:51:12;11.60;;;2.63;;
53293;SDS011;39181;53.440;5.644;2023-06-26T11:53:40;14.50;;;2.75;;
53293;SDS011;39181;53.440;5.644;2023-06-26T11:56:10;13.10;;;2.60;;
53293;SDS011;39181;53.440;5.644;2023-06-26T11:58:54;10.05;;;2.35;;
53293;SDS011;39181;53.440;5.644;2023-06-26T12:01:34;14.18;;;2.30;;
53293;SDS011;39181;53.440;5.644;2023-06-26T12:04:06;14.73;;;2.45;;
53293;SDS011;39181;53.440;5.644;2023-06-26T12:06:34;16.88;;;2.92;;
53293;SDS011;39181;53.440;5.644;2023-06-26T12:09:00;13.27;;;2.50;;
53293;SDS011;39181;53.440;5.644;2023-06-26T12:11:30;12.40;;;2.25;;
53293;SDS011;39181;53.440;5.644;2023-06-26T12:13:56;12.02;;;2.83;;
53293;SDS011;39181;53.440;5.644;2023-06-26T12:16:22;9.25;;;2.13;;
53293;SDS011;39181;53.440;5.644;2023-06-26T12:18:48;13.93;;;3.25;;
53293;SDS011;39181;53.440;5.644;2023-06-26T12:24:17;13.30;;;2.63;;
53293;SDS011;39181;53.440;5.644;2023-06-26T12:26:45;13.07;;;3.47;;
53293;SDS011;39181;53.440;5.644;2023-06-26T12:29:12;11.75;;;3.00;;
53293;SDS011;39181;53.440;5.644;2023-06-26T12:31:43;13.07;;;2.60;;
53293;SDS011;39181;53.440;5.644;2023-06-26T12:34:10;13.27;;;2.58;;
53293;SDS011;39181;53.440;5.644;2023-06-26T12:36:45;10.70;;;3.08;;
53293;SDS011;39181;53.440;5.644;2023-06-26T12:39:18;13.43;;;2.38;;
53293;SDS011;39181;53.440;5.644;2023-06-26T12:44:18;11.13;;;2.30;;
53293;SDS011;39181;53.440;5.644;2023-06-26T12:46:45;16.63;;;2.78;;
53293;SDS011;39181;53.440;5.644;2023-06-26T12:49:12;18.33;;;2.92;;
53293;SDS011;39181;53.440;5.644;2023-06-26T12:51:38;17.77;;;2.75;;
53293;SDS011;39181;53.440;5.644;2023-06-26T12:54:05;10.82;;;2.38;;
53293;SDS011;39181;53.440;5.644;2023-06-26T12:56:31;10.02;;;2.92;;
53293;SDS011;39181;53.440;5.644;2023-06-26T12:58:56;10.85;;;2.38;;
53293;SDS011;39181;53.440;5.644;2023-06-26T13:01:22;12.15;;;2.50;;
53293;SDS011;39181;53.440;5.644;2023-06-26T13:03:49;13.13;;;2.42;;
53293;SDS011;39181;53.440;5.644;2023-06-26T13:06:16;10.15;;;3.03;;
53293;SDS011;39181;53.440;5.644;2023-06-26T13:08:41;11.43;;;2.58;;
53293;SDS011;39181;53.440;5.644;2023-06-26T13:11:08;13.43;;;2.38;;
53293;SDS011;39181;53.440;5.644;2023-06-26T13:13:34;15.70;;;2.78;;
53293;SDS011;39181;53.440;5.644;2023-06-26T13:15:59;10.88;;;2.47;;
53293;SDS011;39181;53.440;5.644;2023-06-26T13:18:25;16.33;;;2.30;;
53293;SDS011;39181;53.440;5.644;2023-06-26T13:20:51;14.40;;;2.58;;
53293;SDS011;39181;53.440;5.644;2023-06-26T13:23:16;16.90;;;2.25;;
53293;SDS011;39181;53.440;5.644;2023-06-26T13:25:43;12.48;;;2.25;;
53293;SDS011;39181;53.440;5.644;2023-06-26T13:28:09;13.40;;;2.03;;
53293;SDS011;39181;53.440;5.644;2023-06-26T13:30:35;12.70;;;2.70;;
53293;SDS011;39181;53.440;5.644;2023-06-26T13:33:00;12.60;;;2.03;;
53293;SDS011;39181;53.440;5.644;2023-06-26T13:35:26;16.27;;;2.67;;
53293;SDS011;39181;53.440;5.644;2023-06-26T13:37:52;15.20;;;2.70;;
53293;SDS011;39181;53.440;5.644;2023-06-26T13:40:17;16.25;;;2.60;;
53293;SDS011;39181;53.440;5.644;2023-06-26T13:42:43;12.73;;;2.50;;
53293;SDS011;39181;53.440;5.644;2023-06-26T13:45:09;12.88;;;2.47;;
53293;SDS011;39181;53.440;5.644;2023-06-26T13:47:35;12.80;;;2.65;;
53293;SDS011;39181;53.440;5.644;2023-06-26T13:50:03;18.60;;;2.45;;
53293;SDS011;39181;53.440;5.644;2023-06-26T13:52:29;16.30;;;2.85;;
53293;SDS011;39181;53.440;5.644;2023-06-26T13:54:55;11.63;;;2.22;;
53293;SDS011;39181;53.440;5.644;2023-06-26T13:57:20;13.65;;;3.03;;
53293;SDS011;39181;53.440;5.644;2023-06-26T13:59:47;12.85;;;2.38;;
53293;SDS011;39181;53.440;5.644;2023-06-26T14:02:12;14.02;;;2.92;;
53293;SDS011;39181;53.440;5.644;2023-06-26T14:04:38;13.02;;;2.78;;
53293;SDS011;39181;53.440;5.644;2023-06-26T14:07:05;12.38;;;2.30;;
53293;SDS011;39181;53.440;5.644;2023-06-26T14:09:31;12.90;;;2.60;;
53293;SDS011;39181;53.440;5.644;2023-06-26T14:11:56;18.15;;;2.90;;
53293;SDS011;39181;53.440;5.644;2023-06-26T14:14:22;14.55;;;2.90;;
53293;SDS011;39181;53.440;5.644;2023-06-26T14:16:48;16.10;;;2.75;;
53293;SDS011;39181;53.440;5.644;2023-06-26T14:19:14;9.88;;;2.75;;
53293;SDS011;39181;53.440;5.644;2023-06-26T14:21:40;13.63;;;2.38;;
53293;SDS011;39181;53.440;5.644;2023-06-26T14:24:06;11.50;;;2.60;;
53293;SDS011;39181;53.440;5.644;2023-06-26T14:26:32;11.75;;;2.50;;
53293;SDS011;39181;53.440;5.644;2023-06-26T14:28:58;13.98;;;2.88;;
53293;SDS011;39181;53.440;5.644;2023-06-26T14:31:25;14.93;;;2.75;;
53293;SDS011;39181;53.440;5.644;2023-06-26T14:33:50;13.40;;;2.83;;
53293;SDS011;39181;53.440;5.644;2023-06-26T14:36:16;16.05;;;2.70;;
53293;SDS011;39181;53.440;5.644;2023-06-26T14:38:42;8.63;;;2.38;;
53293;SDS011;39181;53.440;5.644;2023-06-26T14:41:07;14.60;;;2.63;;
53293;SDS011;39181;53.440;5.644;2023-06-26T14:43:33;11.00;;;2.22;;
53293;SDS011;39181;53.440;5.644;2023-06-26T14:45:59;10.80;;;3.03;;
53293;SDS011;39181;53.440;5.644;2023-06-26T14:48:24;11.45;;;2.35;;
53293;SDS011;39181;53.440;5.644;2023-06-26T14:50:50;12.40;;;2.38;;
53293;SDS011;39181;53.440;5.644;2023-06-26T14:53:15;8.80;;;1.75;;
53293;SDS011;39181;53.440;5.644;2023-06-26T14:55:41;12.57;;;2.50;;
53293;SDS011;39181;53.440;5.644;2023-06-26T14:58:07;15.35;;;3.35;;